Time;durP1;ratioP1;P1;durP2;ratioP2;P2;SDS_P1;SDS_P2;PMS_P1;PMS_P2;Temp;Humidity;BMP_temperature;BMP_pressure;BME280_temperature;BME280_humidity;BME280_pressure;Samples;Min_cycle;Max_cycle;Signal;HPM_P1;HPM_P2
2021/01/07 00:02:25;;;;;;;10.70;7.88;;;;;;;;;;5093531;28;20224;-59
2021/01/07 00:04:51;;;;;;;10.85;8.40;;;;;;;;;;5093537;28;20215;-59
2021/01/07 00:07:18;;;;;;;12.52;8.10;;;;;;;;;;5093405;28;20219;-59
2021/01/07 00:09:46;;;;;;;9.65;7.70;;;;;;;;;;5095128;28;20204;-59
2021/01/07 00:12:12;;;;;;;12.70;7.95;;;;;;;;;;5098815;28;20224;-58
2021/01/07 00:14:39;;;;;;;10.00;7.55;;;;;;;;;;5096084;28;20250;-59
2021/01/07 00:17:06;;;;;;;11.05;7.68;;;;;;;;;;5098312;28;20253;-58
2021/01/07 00:19:33;;;;;;;12.50;8.10;;;;;;;;;;5097445;28;20196;-59
2021/01/07 00:21:59;;;;;;;10.88;7.63;;;;;;;;;;5097485;28;20220;-59
2021/01/07 00:24:26;;;;;;;10.23;7.80;;;;;;;;;;5102446;28;20200;-58
2021/01/07 00:26:54;;;;;;;10.25;7.85;;;;;;;;;;5102787;28;20200;-59
2021/01/07 00:29:20;;;;;;;10.65;7.40;;;;;;;;;;5104017;28;20273;-59
2021/01/07 00:31:47;;;;;;;9.45;7.40;;;;;;;;;;5104183;28;20211;-59
2021/01/07 00:34:14;;;;;;;9.98;7.68;;;;;;;;;;5104384;28;20201;-59
2021/01/07 00:36:41;;;;;;;8.68;6.68;;;;;;;;;;5103348;28;20262;-59
2021/01/07 00:39:08;;;;;;;10.07;7.53;;;;;;;;;;5103671;28;20205;-59
2021/01/07 00:41:34;;;;;;;9.30;6.93;;;;;;;;;;5105478;28;20204;-59
2021/01/07 00:44:03;;;;;;;9.95;7.15;;;;;;;;;;5105734;28;20613;-59
2021/01/07 00:46:30;;;;;;;9.32;6.32;;;;;;;;;;5103825;28;20205;-59
2021/01/07 00:48:56;;;;;;;8.15;6.68;;;;;;;;;;5101144;28;20212;-59
2021/01/07 00:51:31;;;;;;;10.55;7.25;;;;;;;;;;5099925;28;20196;-59
2021/01/07 00:53:57;;;;;;;10.30;6.43;;;;;;;;;;5099925;28;20191;-59
2021/01/07 00:56:24;;;;;;;9.20;7.47;;;;;;;;;;5098038;28;20200;-59
2021/01/07 00:58:51;;;;;;;11.05;6.95;;;;;;;;;;5097748;28;20242;-59
2021/01/07 01:01:18;;;;;;;8.20;6.57;;;;;;;;;;5098088;28;20262;-58
2021/01/07 01:03:45;;;;;;;8.35;5.93;;;;;;;;;;5097766;28;20277;-59
2021/01/07 01:06:12;;;;;;;7.35;5.70;;;;;;;;;;5098082;28;20219;-59
2021/01/07 01:08:39;;;;;;;8.68;6.03;;;;;;;;;;5098799;28;20228;-59
2021/01/07 01:11:05;;;;;;;9.20;6.75;;;;;;;;;;5099525;28;20200;-58
2021/01/07 01:13:32;;;;;;;8.73;6.40;;;;;;;;;;5098918;28;20772;-59
2021/01/07 01:15:59;;;;;;;8.35;6.18;;;;;;;;;;5098413;28;20204;-58
2021/01/07 01:18:26;;;;;;;8.40;6.43;;;;;;;;;;5097916;28;20196;-58
2021/01/07 01:20:53;;;;;;;8.48;6.22;;;;;;;;;;5097910;28;20205;-58
2021/01/07 01:23:20;;;;;;;10.63;6.65;;;;;;;;;;5097759;28;20220;-59
2021/01/07 01:25:47;;;;;;;7.75;5.93;;;;;;;;;;5098050;28;20200;-59
2021/01/07 01:28:13;;;;;;;8.98;6.80;;;;;;;;;;5097576;28;20212;-58
2021/01/07 01:30:40;;;;;;;8.52;6.30;;;;;;;;;;5098299;28;20196;-58
2021/01/07 01:33:07;;;;;;;6.53;5.72;;;;;;;;;;5099087;28;20234;-58
2021/01/07 01:35:34;;;;;;;7.57;5.50;;;;;;;;;;5098703;28;20668;-59
2021/01/07 01:38:01;;;;;;;8.55;6.65;;;;;;;;;;5097386;28;20196;-59
2021/01/07 01:40:28;;;;;;;8.75;6.75;;;;;;;;;;5101836;28;20741;-58
2021/01/07 01:42:55;;;;;;;8.10;6.15;;;;;;;;;;5099226;28;20592;-59
2021/01/07 01:45:21;;;;;;;8.52;5.70;;;;;;;;;;5096986;28;20200;-58
2021/01/07 01:47:48;;;;;;;9.43;6.47;;;;;;;;;;5096701;28;20216;-59
2021/01/07 01:50:15;;;;;;;7.32;6.20;;;;;;;;;;5096391;28;20207;-59
2021/01/07 01:52:43;;;;;;;9.00;6.07;;;;;;;;;;5098099;28;20642;-58
2021/01/07 01:55:10;;;;;;;8.05;6.57;;;;;;;;;;5097590;28;20656;-59
2021/01/07 01:57:38;;;;;;;8.10;6.07;;;;;;;;;;5097527;28;20192;-59
2021/01/07 02:00:05;;;;;;;9.40;6.00;;;;;;;;;;5097357;28;20200;-59
2021/01/07 02:02:32;;;;;;;9.32;6.18;;;;;;;;;;5097078;28;20247;-60
2021/01/07 02:05:00;;;;;;;8.20;5.82;;;;;;;;;;5098762;28;20658;-59
2021/01/07 02:07:27;;;;;;;8.07;6.45;;;;;;;;;;5096788;28;20203;-59
2021/01/07 02:09:56;;;;;;;8.15;5.45;;;;;;;;;;5096802;28;20204;-60
2021/01/07 02:12:23;;;;;;;7.55;6.25;;;;;;;;;;5096456;28;20293;-58
2021/01/07 02:14:50;;;;;;;7.78;6.05;;;;;;;;;;5095805;28;20203;-59
2021/01/07 02:17:17;;;;;;;8.40;6.00;;;;;;;;;;5095875;28;20196;-59
2021/01/07 02:19:44;;;;;;;9.45;6.53;;;;;;;;;;5095918;28;20579;-59
2021/01/07 02:22:12;;;;;;;8.25;5.00;;;;;;;;;;5095396;28;20220;-59
2021/01/07 02:24:39;;;;;;;7.57;5.90;;;;;;;;;;5095606;28;20196;-59
2021/01/07 02:27:07;;;;;;;9.88;5.03;;;;;;;;;;5095556;28;20204;-59
2021/01/07 02:29:33;;;;;;;8.38;6.45;;;;;;;;;;5095424;28;20224;-59
2021/01/07 02:32:00;;;;;;;7.80;5.78;;;;;;;;;;5095093;28;20270;-58
2021/01/07 02:34:27;;;;;;;7.38;5.25;;;;;;;;;;5095104;28;20197;-60
2021/01/07 02:36:54;;;;;;;7.90;6.07;;;;;;;;;;5095219;28;20207;-59
2021/01/07 02:39:21;;;;;;;9.57;6.25;;;;;;;;;;5095250;28;20196;-59
2021/01/07 02:41:51;;;;;;;9.50;6.22;;;;;;;;;;5095541;28;20565;-59
2021/01/07 02:44:18;;;;;;;6.90;5.43;;;;;;;;;;5095210;28;20580;-59
2021/01/07 02:46:45;;;;;;;7.95;5.60;;;;;;;;;;5094013;28;20573;-59
2021/01/07 02:49:12;;;;;;;8.13;6.40;;;;;;;;;;5095003;28;20584;-59
2021/01/07 02:51:38;;;;;;;8.75;6.75;;;;;;;;;;5094784;28;20578;-60
2021/01/07 02:54:05;;;;;;;7.95;6.25;;;;;;;;;;5095872;28;20593;-59
2021/01/07 02:56:33;;;;;;;7.70;5.57;;;;;;;;;;5095814;28;20258;-59
2021/01/07 02:59:00;;;;;;;8.45;6.75;;;;;;;;;;5095958;28;20663;-59
2021/01/07 03:01:27;;;;;;;7.60;6.00;;;;;;;;;;5097184;22;20229;-55
2021/01/07 03:03:55;;;;;;;7.82;5.60;;;;;;;;;;5033959;28;20209;-55
2021/01/07 03:06:22;;;;;;;8.35;5.90;;;;;;;;;;5034140;28;20347;-55
2021/01/07 03:08:49;;;;;;;6.70;5.05;;;;;;;;;;5034010;28;20295;-55
2021/01/07 03:11:15;;;;;;;10.90;6.57;;;;;;;;;;5034083;28;20226;-55
2021/01/07 03:13:43;;;;;;;8.73;6.70;;;;;;;;;;5033940;28;20205;-55
2021/01/07 03:16:10;;;;;;;8.18;6.32;;;;;;;;;;5034226;28;20209;-55
2021/01/07 03:18:37;;;;;;;8.68;6.65;;;;;;;;;;5033562;28;20666;-54
2021/01/07 03:21:04;;;;;;;11.88;7.57;;;;;;;;;;5033496;28;20238;-55
2021/01/07 03:23:31;;;;;;;8.57;5.88;;;;;;;;;;5033420;28;20698;-52
2021/01/07 03:25:57;;;;;;;9.38;6.70;;;;;;;;;;5033429;28;20670;-55
2021/01/07 03:28:24;;;;;;;8.75;5.28;;;;;;;;;;5033576;28;20222;-55
2021/01/07 03:30:52;;;;;;;10.30;6.70;;;;;;;;;;5033663;28;20199;-55
2021/01/07 03:33:19;;;;;;;10.50;6.55;;;;;;;;;;5033502;28;20205;-54
2021/01/07 03:35:45;;;;;;;9.88;6.60;;;;;;;;;;5033626;28;20198;-55
2021/01/07 03:38:12;;;;;;;11.70;6.78;;;;;;;;;;5033264;28;20199;-54
2021/01/07 03:40:39;;;;;;;10.13;6.80;;;;;;;;;;5033173;28;20217;-55
2021/01/07 03:43:06;;;;;;;12.60;7.15;;;;;;;;;;5033476;28;20198;-55
2021/01/07 03:45:32;;;;;;;9.98;5.72;;;;;;;;;;5033386;28;20206;-55
2021/01/07 03:48:01;;;;;;;11.05;7.32;;;;;;;;;;5033347;28;20225;-55
2021/01/07 03:50:27;;;;;;;11.23;6.78;;;;;;;;;;5033371;28;20297;-54
2021/01/07 03:52:54;;;;;;;8.48;5.90;;;;;;;;;;5033299;28;20226;-55
2021/01/07 03:55:21;;;;;;;9.77;7.25;;;;;;;;;;5033470;28;20206;-55
2021/01/07 03:57:48;;;;;;;12.98;8.05;;;;;;;;;;5033202;28;20199;-55
2021/01/07 04:00:15;;;;;;;10.77;6.65;;;;;;;;;;5033250;28;20202;-55
2021/01/07 04:02:42;;;;;;;9.73;6.93;;;;;;;;;;5033060;28;20261;-55
2021/01/07 04:07:37;;;;;;;11.68;7.63;;;;;;;;;;5111762;27;20589;-56
2021/01/07 04:10:04;;;;;;;10.65;6.72;;;;;;;;;;5111140;28;20613;-56
2021/01/07 04:12:31;;;;;;;10.25;7.03;;;;;;;;;;5110701;28;20224;-56
2021/01/07 04:14:58;;;;;;;12.50;7.65;;;;;;;;;;5111083;28;20214;-56
2021/01/07 04:17:24;;;;;;;11.60;7.68;;;;;;;;;;5111133;28;20199;-55
2021/01/07 04:19:51;;;;;;;11.20;7.70;;;;;;;;;;5110920;28;20210;-56
2021/01/07 04:22:18;;;;;;;12.07;7.50;;;;;;;;;;5110952;28;20219;-56
2021/01/07 04:24:46;;;;;;;11.98;8.30;;;;;;;;;;5111254;28;20205;-56
2021/01/07 04:27:12;;;;;;;11.70;7.47;;;;;;;;;;5111291;28;20265;-56
2021/01/07 04:29:39;;;;;;;12.57;8.90;;;;;;;;;;5110775;28;20207;-56
2021/01/07 04:32:06;;;;;;;11.20;8.27;;;;;;;;;;5110932;28;20227;-56
2021/01/07 04:34:33;;;;;;;11.90;8.95;;;;;;;;;;5110562;28;20249;-57
2021/01/07 04:37:00;;;;;;;13.35;9.00;;;;;;;;;;5110543;28;20602;-56
2021/01/07 04:39:26;;;;;;;14.82;9.90;;;;;;;;;;5110471;28;20211;-56
2021/01/07 04:41:54;;;;;;;15.25;9.35;;;;;;;;;;5111157;28;20223;-56
2021/01/07 04:44:21;;;;;;;11.90;8.57;;;;;;;;;;5115394;28;20570;-55
2021/01/07 04:46:48;;;;;;;11.38;7.20;;;;;;;;;;5110967;28;20295;-55
2021/01/07 04:49:15;;;;;;;13.00;9.63;;;;;;;;;;5110868;28;20207;-55
2021/01/07 04:51:42;;;;;;;17.23;10.48;;;;;;;;;;5110530;28;20250;-57
2021/01/07 04:54:09;;;;;;;15.65;9.90;;;;;;;;;;5111250;28;20249;-55
2021/01/07 04:56:36;;;;;;;15.48;9.20;;;;;;;;;;5110498;28;20302;-56
2021/01/07 04:59:03;;;;;;;13.00;9.13;;;;;;;;;;5111476;28;20204;-56
2021/01/07 05:01:30;;;;;;;13.63;9.30;;;;;;;;;;5111552;28;20246;-56
2021/01/07 05:03:57;;;;;;;15.55;9.82;;;;;;;;;;5111732;28;20211;-55
2021/01/07 05:06:25;;;;;;;11.45;8.38;;;;;;;;;;5112351;28;20603;-56
2021/01/07 05:08:56;;;;;;;12.60;9.05;;;;;;;;;;5113026;28;20290;-55
2021/01/07 05:11:25;;;;;;;12.00;8.70;;;;;;;;;;5111867;28;20755;-55
2021/01/07 05:13:57;;;;;;;17.08;7.93;;;;;;;;;;5112061;28;20200;-55
2021/01/07 05:16:25;;;;;;;10.90;7.95;;;;;;;;;;5112313;28;20263;-55
2021/01/07 05:18:51;;;;;;;11.05;7.85;;;;;;;;;;5101688;28;20672;-56
2021/01/07 05:21:18;;;;;;;10.60;6.78;;;;;;;;;;5102663;28;20219;-56
2021/01/07 05:23:45;;;;;;;12.27;8.48;;;;;;;;;;5102274;28;20211;-55
2021/01/07 05:26:12;;;;;;;12.73;8.40;;;;;;;;;;5097561;28;20216;-55
2021/01/07 05:28:40;;;;;;;11.20;7.90;;;;;;;;;;5096144;28;20572;-55
2021/01/07 05:31:10;;;;;;;14.07;9.20;;;;;;;;;;5096049;28;20224;-55
2021/01/07 05:33:39;;;;;;;12.02;8.30;;;;;;;;;;5096088;28;20200;-55
2021/01/07 05:36:17;;;;;;;13.20;8.43;;;;;;;;;;5095678;28;20200;-55
2021/01/07 05:38:44;;;;;;;11.82;7.80;;;;;;;;;;5095826;28;20184;-55
2021/01/07 05:41:12;;;;;;;12.30;8.40;;;;;;;;;;5095284;28;20780;-56
2021/01/07 05:43:39;;;;;;;11.93;8.05;;;;;;;;;;5095359;28;20691;-57
2021/01/07 05:46:08;;;;;;;12.02;8.20;;;;;;;;;;5095644;28;20224;-56
2021/01/07 05:48:34;;;;;;;12.73;9.00;;;;;;;;;;5095415;28;20200;-56
2021/01/07 05:51:04;;;;;;;12.52;7.85;;;;;;;;;;5095350;28;20723;-56
2021/01/07 05:53:31;;;;;;;12.15;8.25;;;;;;;;;;5095590;28;20219;-56
2021/01/07 05:55:57;;;;;;;12.00;8.40;;;;;;;;;;5095473;28;20192;-56
2021/01/07 05:58:25;;;;;;;12.07;8.43;;;;;;;;;;5095547;28;20587;-56
2021/01/07 06:00:52;;;;;;;9.45;6.57;;;;;;;;;;5095622;28;20200;-56
2021/01/07 06:03:20;;;;;;;12.57;8.27;;;;;;;;;;5098498;28;20200;-56
2021/01/07 06:05:46;;;;;;;12.32;8.10;;;;;;;;;;5097261;28;20227;-56
2021/01/07 06:08:17;;;;;;;13.02;8.80;;;;;;;;;;5096140;28;20556;-56
2021/01/07 06:10:45;;;;;;;12.85;8.75;;;;;;;;;;5095369;28;20219;-56
2021/01/07 06:13:11;;;;;;;11.20;8.15;;;;;;;;;;5094890;28;20200;-54
2021/01/07 06:15:38;;;;;;;12.30;8.20;;;;;;;;;;5094658;28;20204;-55
2021/01/07 06:18:05;;;;;;;11.50;7.32;;;;;;;;;;5094691;28;20204;-55
2021/01/07 06:20:33;;;;;;;12.57;7.93;;;;;;;;;;5094523;28;20249;-55
2021/01/07 06:23:00;;;;;;;10.52;7.40;;;;;;;;;;5094901;28;20200;-55
2021/01/07 06:25:28;;;;;;;12.10;8.15;;;;;;;;;;5094733;28;20207;-55
2021/01/07 06:27:55;;;;;;;11.30;8.48;;;;;;;;;;5094846;28;20200;-56
2021/01/07 06:30:35;;;;;;;11.82;8.45;;;;;;;;;;5093435;28;20209;-54
2021/01/07 06:33:03;;;;;;;11.77;8.35;;;;;;;;;;5095021;28;20196;-56
2021/01/07 06:35:34;;;;;;;10.45;7.20;;;;;;;;;;5095279;28;20200;-56
2021/01/07 06:38:01;;;;;;;13.50;8.38;;;;;;;;;;5094845;28;20400;-55
2021/01/07 06:40:28;;;;;;;8.90;7.05;;;;;;;;;;5094782;28;20552;-55
2021/01/07 06:42:56;;;;;;;11.30;7.70;;;;;;;;;;5094144;28;20715;-56
2021/01/07 06:45:24;;;;;;;12.38;7.32;;;;;;;;;;5094045;28;20253;-55
2021/01/07 06:47:53;;;;;;;9.35;6.85;;;;;;;;;;5093863;28;20690;-55
2021/01/07 06:50:20;;;;;;;11.38;7.95;;;;;;;;;;5093960;28;20196;-55
2021/01/07 06:52:47;;;;;;;11.15;7.47;;;;;;;;;;5093912;28;20228;-55
2021/01/07 06:55:14;;;;;;;10.32;7.50;;;;;;;;;;5094289;28;20200;-55
2021/01/07 06:57:44;;;;;;;11.00;7.63;;;;;;;;;;5094185;28;20196;-55
2021/01/07 07:00:12;;;;;;;11.95;8.15;;;;;;;;;;5093794;28;20295;-56
2021/01/07 07:02:39;;;;;;;10.77;8.93;;;;;;;;;;5093753;28;20770;-55
2021/01/07 07:05:06;;;;;;;11.75;7.25;;;;;;;;;;5094060;28;20560;-55
2021/01/07 07:07:52;;;;;;;11.57;7.82;;;;;;;;;;5093697;28;20223;-56
2021/01/07 07:10:49;;;;;;;10.43;8.13;;;;;;;;;;5093649;28;20188;-56
2021/01/07 07:13:16;;;;;;;9.95;7.10;;;;;;;;;;5031570;28;20202;-55
2021/01/07 07:15:44;;;;;;;11.52;7.72;;;;;;;;;;5080241;28;20207;-56
2021/01/07 07:18:11;;;;;;;9.82;7.00;;;;;;;;;;5094775;28;20200;-56
2021/01/07 07:20:40;;;;;;;8.50;7.30;;;;;;;;;;5094692;28;20212;-55
2021/01/07 07:23:13;;;;;;;10.68;7.32;;;;;;;;;;5093353;28;20684;-53
2021/01/07 07:25:41;;;;;;;11.73;7.63;;;;;;;;;;5093853;28;20181;-56
2021/01/07 07:28:10;;;;;;;11.07;7.90;;;;;;;;;;5093356;28;20196;-56
2021/01/07 07:30:41;;;;;;;13.05;7.88;;;;;;;;;;5093580;28;20204;-55
2021/01/07 07:33:07;;;;;;;10.70;7.72;;;;;;;;;;5093293;28;20184;-54
2021/01/07 07:35:35;;;;;;;10.40;8.00;;;;;;;;;;5093083;28;20203;-55
2021/01/07 07:38:02;;;;;;;12.63;8.00;;;;;;;;;;5093642;28;20201;-56
2021/01/07 07:40:32;;;;;;;11.05;7.72;;;;;;;;;;5092745;28;20200;-56
2021/01/07 07:42:59;;;;;;;10.80;8.55;;;;;;;;;;5092944;28;20188;-54
2021/01/07 07:45:26;;;;;;;11.38;7.80;;;;;;;;;;5093177;28;20201;-55
2021/01/07 07:47:54;;;;;;;9.75;7.20;;;;;;;;;;5093280;28;20281;-55
2021/01/07 07:50:21;;;;;;;10.35;8.07;;;;;;;;;;5093543;28;20249;-56
2021/01/07 07:52:48;;;;;;;12.38;8.45;;;;;;;;;;5093249;28;20841;-55
2021/01/07 07:55:15;;;;;;;11.32;7.80;;;;;;;;;;5093835;28;20200;-55
2021/01/07 07:57:48;;;;;;;10.88;8.20;;;;;;;;;;5093296;28;20250;-55
2021/01/07 08:00:15;;;;;;;13.85;8.10;;;;;;;;;;5093192;28;20200;-56
2021/01/07 08:02:43;;;;;;;11.45;8.23;;;;;;;;;;5092710;28;20224;-55
2021/01/07 08:05:12;;;;;;;10.85;8.65;;;;;;;;;;5093223;28;20692;-55
2021/01/07 08:07:38;;;;;;;12.23;8.23;;;;;;;;;;5093034;28;20204;-54
2021/01/07 08:10:06;;;;;;;8.93;6.93;;;;;;;;;;5092960;28;20238;-55
2021/01/07 08:12:35;;;;;;;9.77;7.40;;;;;;;;;;5093336;28;20220;-54
2021/01/07 08:15:01;;;;;;;10.73;7.38;;;;;;;;;;5092912;28;20204;-55
2021/01/07 08:17:28;;;;;;;10.50;7.65;;;;;;;;;;5092923;28;20192;-55
2021/01/07 08:19:55;;;;;;;11.20;7.63;;;;;;;;;;5092853;28;20201;-55
2021/01/07 08:22:28;;;;;;;9.77;7.28;;;;;;;;;;5093116;28;20224;-56
2021/01/07 08:24:57;;;;;;;7.85;6.57;;;;;;;;;;5094032;28;20196;-56
2021/01/07 08:27:24;;;;;;;8.93;6.90;;;;;;;;;;5093187;28;20358;-55
2021/01/07 08:29:51;;;;;;;9.18;7.05;;;;;;;;;;5093291;28;20204;-54
2021/01/07 08:32:19;;;;;;;11.52;6.90;;;;;;;;;;5093257;28;20594;-55
2021/01/07 08:34:46;;;;;;;9.65;6.80;;;;;;;;;;5093047;28;20200;-55
2021/01/07 08:37:14;;;;;;;16.17;7.30;;;;;;;;;;5095405;28;20622;-54
2021/01/07 08:39:42;;;;;;;8.30;6.47;;;;;;;;;;5094541;28;20302;-55
2021/01/07 08:42:09;;;;;;;7.10;6.38;;;;;;;;;;5092642;28;20222;-56
2021/01/07 08:44:36;;;;;;;8.00;6.30;;;;;;;;;;5092581;28;20582;-56
2021/01/07 08:47:03;;;;;;;6.95;6.10;;;;;;;;;;5092394;28;20220;-56
2021/01/07 08:49:30;;;;;;;8.55;6.22;;;;;;;;;;5092331;28;20278;-56
2021/01/07 08:51:59;;;;;;;7.65;6.28;;;;;;;;;;5092324;28;20229;-56
2021/01/07 08:54:26;;;;;;;7.65;6.65;;;;;;;;;;5095956;28;20322;-55
2021/01/07 08:56:55;;;;;;;8.75;6.43;;;;;;;;;;5096330;28;20223;-56
2021/01/07 08:59:26;;;;;;;8.00;6.95;;;;;;;;;;5095804;28;20307;-57
2021/01/07 09:01:53;;;;;;;8.85;6.50;;;;;;;;;;5096045;28;20373;-55
2021/01/07 09:04:41;;;;;;;9.10;6.75;;;;;;;;;;5095558;28;20207;-57
2021/01/07 09:07:08;;;;;;;9.27;6.60;;;;;;;;;;5095884;28;20220;-56
2021/01/07 09:09:39;;;;;;;8.20;7.00;;;;;;;;;;5096911;28;20196;-56
2021/01/07 09:12:13;;;;;;;9.05;6.70;;;;;;;;;;5096897;28;20217;-57
2021/01/07 09:14:50;;;;;;;8.98;7.22;;;;;;;;;;5096350;28;20203;-56
2021/01/07 09:17:17;;;;;;;9.13;6.60;;;;;;;;;;5096296;28;20552;-57
2021/01/07 09:19:44;;;;;;;8.30;6.75;;;;;;;;;;5096184;28;20200;-56
2021/01/07 09:22:16;;;;;;;8.88;6.38;;;;;;;;;;5096462;28;20229;-56
2021/01/07 09:24:43;;;;;;;9.02;6.43;;;;;;;;;;5096649;28;20184;-58
2021/01/07 09:27:11;;;;;;;7.22;6.50;;;;;;;;;;5095488;28;20216;-56
2021/01/07 09:29:39;;;;;;;8.93;6.88;;;;;;;;;;5095652;28;20207;-55
2021/01/07 09:32:06;;;;;;;6.60;5.75;;;;;;;;;;5095517;28;20225;-56
2021/01/07 09:34:33;;;;;;;10.90;7.40;;;;;;;;;;5095648;28;20212;-56
2021/01/07 09:37:07;;;;;;;7.68;6.03;;;;;;;;;;5095678;28;20201;-56
2021/01/07 09:39:34;;;;;;;8.10;5.82;;;;;;;;;;5096943;28;20579;-56
2021/01/07 09:42:00;;;;;;;8.70;6.72;;;;;;;;;;5096808;28;20224;-56
2021/01/07 09:44:27;;;;;;;7.30;6.05;;;;;;;;;;5095990;28;20204;-56
2021/01/07 09:46:56;;;;;;;8.35;6.03;;;;;;;;;;5095826;28;20586;-57
2021/01/07 09:49:23;;;;;;;7.53;6.70;;;;;;;;;;5097336;28;20204;-55
2021/01/07 09:51:50;;;;;;;9.40;6.53;;;;;;;;;;5098410;28;20228;-56
2021/01/07 09:54:17;;;;;;;9.70;6.35;;;;;;;;;;5096357;28;20629;-57
2021/01/07 09:56:44;;;;;;;7.68;6.55;;;;;;;;;;5096567;28;20193;-57
2021/01/07 09:59:10;;;;;;;8.25;7.20;;;;;;;;;;5095971;28;20581;-55
2021/01/07 10:01:37;;;;;;;8.00;6.78;;;;;;;;;;5095474;28;20897;-56
2021/01/07 10:04:05;;;;;;;10.77;7.05;;;;;;;;;;5095939;28;20556;-58
2021/01/07 10:06:32;;;;;;;8.40;7.20;;;;;;;;;;5094748;28;20453;-57
2021/01/07 10:08:59;;;;;;;8.88;7.57;;;;;;;;;;5096046;28;20561;-58
2021/01/07 10:11:25;;;;;;;9.35;7.20;;;;;;;;;;5095936;28;20229;-58
2021/01/07 10:13:52;;;;;;;7.80;7.00;;;;;;;;;;5095682;28;20201;-58
2021/01/07 10:16:19;;;;;;;8.75;7.00;;;;;;;;;;5095975;28;20219;-58
2021/01/07 10:18:46;;;;;;;7.38;6.40;;;;;;;;;;5095528;28;20227;-58
2021/01/07 10:21:15;;;;;;;8.52;6.60;;;;;;;;;;5094628;28;20700;-58
2021/01/07 10:23:43;;;;;;;9.52;6.65;;;;;;;;;;5094101;28;20200;-58
2021/01/07 10:26:10;;;;;;;8.35;6.47;;;;;;;;;;5094158;28;20212;-58
2021/01/07 10:28:38;;;;;;;7.40;6.00;;;;;;;;;;5094843;28;20295;-58
2021/01/07 10:31:05;;;;;;;8.43;6.32;;;;;;;;;;5094038;28;20308;-58
2021/01/07 10:33:32;;;;;;;6.82;6.13;;;;;;;;;;5094080;28;20200;-58
2021/01/07 10:35:59;;;;;;;8.15;6.18;;;;;;;;;;5094245;28;20200;-57
2021/01/07 10:38:27;;;;;;;7.68;6.40;;;;;;;;;;5094028;28;20244;-58
2021/01/07 10:40:55;;;;;;;7.22;6.47;;;;;;;;;;5094353;28;20220;-58
2021/01/07 10:43:22;;;;;;;8.80;6.93;;;;;;;;;;5094179;28;20226;-58
2021/01/07 10:45:52;;;;;;;8.15;7.00;;;;;;;;;;5093953;28;20205;-58
2021/01/07 10:48:22;;;;;;;6.32;5.70;;;;;;;;;;5093936;28;20200;-58
2021/01/07 10:50:49;;;;;;;6.03;5.32;;;;;;;;;;5094384;28;20185;-57
2021/01/07 10:53:23;;;;;;;6.15;5.55;;;;;;;;;;5094782;28;20228;-57
2021/01/07 10:55:55;;;;;;;6.00;5.40;;;;;;;;;;5094455;28;20185;-56
2021/01/07 10:58:28;;;;;;;7.30;6.50;;;;;;;;;;5093236;28;20444;-57
2021/01/07 11:01:04;;;;;;;7.05;6.35;;;;;;;;;;5094977;28;20219;-56
2021/01/07 11:03:52;;;;;;;7.07;5.93;;;;;;;;;;5093728;28;20283;-58
2021/01/07 11:06:20;;;;;;;6.85;5.50;;;;;;;;;;5088846;28;20223;-58
2021/01/07 11:08:48;;;;;;;5.00;4.50;;;;;;;;;;5093862;28;20214;-57
2021/01/07 11:11:24;;;;;;;4.88;4.03;;;;;;;;;;5094187;28;20233;-55
2021/01/07 11:13:53;;;;;;;5.05;4.10;;;;;;;;;;5094083;28;20203;-57
2021/01/07 11:16:23;;;;;;;4.95;4.43;;;;;;;;;;5092959;28;20204;-57
2021/01/07 11:18:50;;;;;;;3.80;3.40;;;;;;;;;;5093872;28;20211;-57
2021/01/07 11:21:20;;;;;;;6.00;4.70;;;;;;;;;;5093572;28;20579;-56
2021/01/07 11:23:47;;;;;;;5.75;4.65;;;;;;;;;;5093629;28;20614;-56
2021/01/07 11:26:14;;;;;;;4.68;4.18;;;;;;;;;;5093049;28;20719;-57
2021/01/07 11:28:42;;;;;;;5.00;4.13;;;;;;;;;;5093349;28;20558;-56
2021/01/07 11:31:12;;;;;;;5.72;4.47;;;;;;;;;;5093409;28;20277;-56
2021/01/07 11:33:40;;;;;;;6.50;4.00;;;;;;;;;;5093389;28;20196;-57
2021/01/07 11:36:10;;;;;;;4.50;3.90;;;;;;;;;;5092656;28;20494;-56
2021/01/07 11:38:42;;;;;;;5.13;4.05;;;;;;;;;;5093934;28;20223;-57
2021/01/07 11:41:15;;;;;;;4.68;4.07;;;;;;;;;;5093382;28;20224;-56
2021/01/07 11:43:55;;;;;;;3.95;3.65;;;;;;;;;;5093036;28;20566;-56
2021/01/07 11:46:22;;;;;;;3.60;3.30;;;;;;;;;;5093016;28;20254;-57
2021/01/07 11:48:54;;;;;;;4.88;4.15;;;;;;;;;;5092805;28;20228;-55
2021/01/07 11:51:20;;;;;;;4.57;4.18;;;;;;;;;;5093681;28;20296;-57
2021/01/07 11:53:47;;;;;;;3.55;3.25;;;;;;;;;;5098267;28;20211;-56
2021/01/07 11:56:14;;;;;;;4.88;4.38;;;;;;;;;;5100048;28;20589;-56
2021/01/07 11:58:42;;;;;;;4.95;4.45;;;;;;;;;;5099692;28;20236;-56
2021/01/07 12:01:10;;;;;;;5.18;4.75;;;;;;;;;;5098188;28;20593;-55
2021/01/07 12:03:37;;;;;;;4.30;3.90;;;;;;;;;;5095535;28;20200;-57
2021/01/07 12:06:05;;;;;;;4.97;4.38;;;;;;;;;;5093918;28;20212;-55
2021/01/07 12:08:52;;;;;;;4.38;3.97;;;;;;;;;;5093457;28;20592;-57
2021/01/07 12:11:22;;;;;;;5.15;4.65;;;;;;;;;;5088117;28;20729;-56
2021/01/07 12:13:54;;;;;;;4.95;4.55;;;;;;;;;;5094235;28;20208;-57
2021/01/07 12:16:25;;;;;;;4.72;4.28;;;;;;;;;;5093841;28;20241;-56
2021/01/07 12:18:52;;;;;;;5.45;4.95;;;;;;;;;;5095392;28;20640;-57
2021/01/07 12:21:20;;;;;;;4.50;4.10;;;;;;;;;;5093846;28;20269;-57
2021/01/07 12:23:47;;;;;;;5.13;4.65;;;;;;;;;;5093662;28;20206;-55
2021/01/07 12:26:13;;;;;;;4.70;4.30;;;;;;;;;;5094329;28;20232;-55
2021/01/07 12:28:42;;;;;;;5.28;4.32;;;;;;;;;;5097558;28;20295;-57
2021/01/07 12:31:10;;;;;;;4.85;4.15;;;;;;;;;;5098214;28;20224;-56
2021/01/07 12:33:47;;;;;;;4.50;4.05;;;;;;;;;;5099185;28;20208;-56
2021/01/07 12:36:18;;;;;;;4.82;3.88;;;;;;;;;;5098996;28;20275;-54
2021/01/07 12:38:51;;;;;;;4.47;3.85;;;;;;;;;;5098426;28;20640;-57
2021/01/07 12:41:19;;;;;;;4.90;4.40;;;;;;;;;;5098322;28;20220;-57
2021/01/07 12:43:49;;;;;;;4.65;4.00;;;;;;;;;;5098555;28;20257;-56
2021/01/07 12:46:19;;;;;;;4.50;4.10;;;;;;;;;;5098884;28;20231;-56
2021/01/07 12:48:47;;;;;;;4.93;4.30;;;;;;;;;;5099883;28;20201;-57
2021/01/07 12:51:14;;;;;;;4.97;4.40;;;;;;;;;;5097749;28;20224;-56
2021/01/07 12:53:42;;;;;;;4.60;4.10;;;;;;;;;;5097614;28;20287;-57
2021/01/07 12:56:12;;;;;;;5.68;4.25;;;;;;;;;;5097017;28;20272;-57
2021/01/07 12:58:41;;;;;;;6.47;5.55;;;;;;;;;;5096887;28;20277;-55
2021/01/07 13:01:11;;;;;;;5.25;4.75;;;;;;;;;;5095925;28;20228;-56
2021/01/07 13:03:42;;;;;;;5.75;4.97;;;;;;;;;;5096367;28;20335;-57
2021/01/07 13:06:13;;;;;;;6.00;5.30;;;;;;;;;;5095886;28;20216;-56
2021/01/07 13:08:41;;;;;;;6.03;5.43;;;;;;;;;;5096249;28;20192;-55
2021/01/07 13:11:08;;;;;;;6.30;5.45;;;;;;;;;;5096127;28;20261;-57
2021/01/07 13:13:40;;;;;;;6.15;5.55;;;;;;;;;;5095952;28;20211;-57
2021/01/07 13:16:07;;;;;;;5.40;4.70;;;;;;;;;;5097206;28;20226;-57
2021/01/07 13:18:34;;;;;;;13.73;5.22;;;;;;;;;;5096007;28;20212;-58
2021/01/07 13:21:01;;;;;;;6.22;5.63;;;;;;;;;;5096201;28;20217;-57
2021/01/07 13:23:28;;;;;;;5.85;5.25;;;;;;;;;;5096095;28;20257;-56
2021/01/07 13:25:55;;;;;;;4.97;4.40;;;;;;;;;;5095775;28;20276;-56
2021/01/07 13:28:23;;;;;;;5.13;4.50;;;;;;;;;;5097649;28;20269;-56
2021/01/07 13:30:50;;;;;;;4.72;4.32;;;;;;;;;;5096638;28;20226;-56
2021/01/07 13:33:16;;;;;;;4.38;3.50;;;;;;;;;;5096106;28;20196;-56
2021/01/07 13:35:44;;;;;;;7.78;4.97;;;;;;;;;;5095552;28;20389;-56
2021/01/07 13:38:11;;;;;;;5.30;4.10;;;;;;;;;;5094968;28;20196;-58
2021/01/07 13:40:40;;;;;;;4.78;4.03;;;;;;;;;;5096238;28;20227;-57
2021/01/07 13:43:09;;;;;;;5.88;4.53;;;;;;;;;;5096373;28;20200;-57
2021/01/07 13:45:36;;;;;;;6.05;5.05;;;;;;;;;;5095754;28;20196;-57
2021/01/07 13:48:03;;;;;;;5.70;4.50;;;;;;;;;;5095734;28;20212;-57
2021/01/07 13:50:34;;;;;;;4.25;3.85;;;;;;;;;;5095895;28;20212;-57
2021/01/07 13:53:03;;;;;;;5.50;4.25;;;;;;;;;;5096310;28;20189;-57
2021/01/07 13:55:30;;;;;;;3.60;3.30;;;;;;;;;;5095288;28;20200;-57
2021/01/07 13:57:58;;;;;;;5.70;4.50;;;;;;;;;;5095149;28;20200;-57
2021/01/07 14:00:25;;;;;;;4.45;3.50;;;;;;;;;;5095472;28;20582;-57
2021/01/07 14:02:52;;;;;;;4.78;4.10;;;;;;;;;;5094989;28;20224;-57
2021/01/07 14:05:19;;;;;;;4.85;4.35;;;;;;;;;;5094762;28;20216;-57
2021/01/07 14:07:55;;;;;;;4.47;3.80;;;;;;;;;;5095044;28;20660;-56
2021/01/07 14:10:23;;;;;;;4.15;3.72;;;;;;;;;;5095039;28;20287;-56
2021/01/07 14:12:50;;;;;;;3.90;3.47;;;;;;;;;;5095206;28;20586;-57
2021/01/07 14:15:18;;;;;;;4.60;3.85;;;;;;;;;;5094871;28;20204;-56
2021/01/07 14:17:45;;;;;;;4.38;3.70;;;;;;;;;;5094791;28;20204;-56
2021/01/07 14:20:12;;;;;;;4.80;4.32;;;;;;;;;;5094695;28;20201;-57
2021/01/07 14:22:39;;;;;;;11.02;4.85;;;;;;;;;;5095418;28;20217;-56
2021/01/07 14:25:07;;;;;;;5.38;4.88;;;;;;;;;;5094997;28;20579;-56
2021/01/07 14:27:40;;;;;;;5.20;4.70;;;;;;;;;;5093956;28;20718;-55
2021/01/07 14:30:07;;;;;;;6.90;5.20;;;;;;;;;;5094363;28;20271;-57
2021/01/07 14:32:35;;;;;;;6.93;6.32;;;;;;;;;;5096039;28;20283;-57
2021/01/07 14:35:05;;;;;;;5.90;4.95;;;;;;;;;;5094616;28;20200;-57
2021/01/07 14:37:32;;;;;;;6.75;5.50;;;;;;;;;;5094159;28;20200;-56
2021/01/07 14:39:59;;;;;;;6.20;5.40;;;;;;;;;;5095367;28;20196;-57
2021/01/07 14:42:25;;;;;;;8.57;5.45;;;;;;;;;;5096460;28;20225;-56
2021/01/07 14:44:52;;;;;;;6.63;5.72;;;;;;;;;;5094068;28;20668;-57
2021/01/07 14:47:23;;;;;;;7.72;5.90;;;;;;;;;;5093967;28;20246;-57